Hollis, Oklahoma
Current Conditions -  °F | °C
As of 1:53 AM on Tuesday 21 Oct 2014 (Local Time) from KCDS Reporting Station
Clear Clear  
Wind Chill: 18°   Ceiling: Unl
Heat Index: 18°   Visibility: 10mi
Dew Point: 13°   Wind: 7mph
Humidity: 72%   Direction: 190°S
Pressure: 30.07"   Gusts: NA
Location:  34.69°N, 99.91°W
Report Text: KCDS 210653Z AUTO 19006KT 10SM CLR 18/13 A3007 RMK AO2 SLP159 T01780128
Loading
Personal Weather Stations






























Interactive Weather Map
Tropical Storm Tracking
New forecast layout! Learn more

10-Day Weather Forecast

Advertisements
Track Severe Weather on mobile